sensor_id;sensor_type;location;lat;lon;timestamp;temperature;humidity
26505;DHT22;19493;48.042;7.584;2023-04-02T00:00:31;7.50;99.90
26505;DHT22;19493;48.042;7.584;2023-04-02T00:03:06;7.50;99.90
26505;DHT22;19493;48.042;7.584;2023-04-02T00:05:41;7.50;99.90
26505;DHT22;19493;48.042;7.584;2023-04-02T00:08:20;7.50;99.90
26505;DHT22;19493;48.042;7.584;2023-04-02T00:13:38;7.40;99.90
26505;DHT22;19493;48.042;7.584;2023-04-02T00:16:07;7.40;99.90
26505;DHT22;19493;48.042;7.584;2023-04-02T00:18:41;7.30;99.90
26505;DHT22;19493;48.042;7.584;2023-04-02T00:21:33;7.30;99.90
26505;DHT22;19493;48.042;7.584;2023-04-02T00:24:05;7.30;99.90
26505;DHT22;19493;48.042;7.584;2023-04-02T00:26:35;7.40;99.90
26505;DHT22;19493;48.042;7.584;2023-04-02T00:29:03;7.30;99.90
26505;DHT22;19493;48.042;7.584;2023-04-02T00:31:30;7.30;99.90
26505;DHT22;19493;48.042;7.584;2023-04-02T00:33:58;7.30;99.90
26505;DHT22;19493;48.042;7.584;2023-04-02T00:36:28;7.40;99.90
26505;DHT22;19493;48.042;7.584;2023-04-02T00:38:56;7.40;99.90
26505;DHT22;19493;48.042;7.584;2023-04-02T00:41:26;7.40;99.90
26505;DHT22;19493;48.042;7.584;2023-04-02T00:43:55;7.30;99.90
26505;DHT22;19493;48.042;7.584;2023-04-02T00:46:26;7.30;99.90
26505;DHT22;19493;48.042;7.584;2023-04-02T00:51:31;7.30;99.90
26505;DHT22;19493;48.042;7.584;2023-04-02T00:54:01;7.30;99.90
26505;DHT22;19493;48.042;7.584;2023-04-02T00:56:33;7.30;99.90
26505;DHT22;19493;48.042;7.584;2023-04-02T00:59:01;7.20;99.90
26505;DHT22;19493;48.042;7.584;2023-04-02T01:01:34;7.20;99.90
26505;DHT22;19493;48.042;7.584;2023-04-02T01:04:02;7.20;99.90
26505;DHT22;19493;48.042;7.584;2023-04-02T01:06:35;7.30;99.90
26505;DHT22;19493;48.042;7.584;2023-04-02T01:12:02;7.40;99.90
26505;DHT22;19493;48.042;7.584;2023-04-02T01:14:57;7.40;99.90
26505;DHT22;19493;48.042;7.584;2023-04-02T01:26:13;7.50;99.90
26505;DHT22;19493;48.042;7.584;2023-04-02T01:31:24;7.70;99.90
26505;DHT22;19493;48.042;7.584;2023-04-02T01:33:51;7.70;99.90
26505;DHT22;19493;48.042;7.584;2023-04-02T01:36:30;7.70;99.90
26505;DHT22;19493;48.042;7.584;2023-04-02T01:42:13;7.80;99.90
26505;DHT22;19493;48.042;7.584;2023-04-02T01:44:49;7.80;99.90
26505;DHT22;19493;48.042;7.584;2023-04-02T01:47:18;7.70;99.90
26505;DHT22;19493;48.042;7.584;2023-04-02T01:49:45;7.70;99.90
26505;DHT22;19493;48.042;7.584;2023-04-02T01:52:16;7.70;99.90
26505;DHT22;19493;48.042;7.584;2023-04-02T01:54:42;7.60;99.90
26505;DHT22;19493;48.042;7.584;2023-04-02T01:57:08;7.60;99.90
26505;DHT22;19493;48.042;7.584;2023-04-02T01:59:34;7.70;99.90
26505;DHT22;19493;48.042;7.584;2023-04-02T02:02:05;7.60;99.90
26505;DHT22;19493;48.042;7.584;2023-04-02T02:04:31;7.60;99.90
26505;DHT22;19493;48.042;7.584;2023-04-02T02:06:58;7.60;99.90
26505;DHT22;19493;48.042;7.584;2023-04-02T02:09:31;7.60;99.90
26505;DHT22;19493;48.042;7.584;2023-04-02T02:11:58;7.70;99.90
26505;DHT22;19493;48.042;7.584;2023-04-02T02:14:26;7.70;99.90
26505;DHT22;19493;48.042;7.584;2023-04-02T02:16:56;7.80;99.90
26505;DHT22;19493;48.042;7.584;2023-04-02T02:19:32;7.70;99.90
26505;DHT22;19493;48.042;7.584;2023-04-02T02:22:25;7.80;99.90
26505;DHT22;19493;48.042;7.584;2023-04-02T02:24:45;7.80;99.90
26505;DHT22;19493;48.042;7.584;2023-04-02T02:29:50;7.80;99.90
26505;DHT22;19493;48.042;7.584;2023-04-02T02:32:19;7.80;99.90
26505;DHT22;19493;48.042;7.584;2023-04-02T02:34:53;7.80;99.90
26505;DHT22;19493;48.042;7.584;2023-04-02T02:37:27;7.70;99.90
26505;DHT22;19493;48.042;7.584;2023-04-02T02:39:56;7.70;99.90
26505;DHT22;19493;48.042;7.584;2023-04-02T02:42:38;7.80;99.90
26505;DHT22;19493;48.042;7.584;2023-04-02T02:45:12;7.80;99.90
26505;DHT22;19493;48.042;7.584;2023-04-02T02:47:41;7.70;99.90
26505;DHT22;19493;48.042;7.584;2023-04-02T02:50:15;7.70;99.90
26505;DHT22;19493;48.042;7.584;2023-04-02T02:52:49;7.70;99.90
26505;DHT22;19493;48.042;7.584;2023-04-02T02:55:18;7.70;99.90
26505;DHT22;19493;48.042;7.584;2023-04-02T02:57:51;7.70;99.90
26505;DHT22;19493;48.042;7.584;2023-04-02T03:00:17;7.70;99.90
26505;DHT22;19493;48.042;7.584;2023-04-02T03:02:45;7.70;99.90
26505;DHT22;19493;48.042;7.584;2023-04-02T03:05:20;7.70;99.90
26505;DHT22;19493;48.042;7.584;2023-04-02T03:07:47;7.70;99.90
26505;DHT22;19493;48.042;7.584;2023-04-02T03:10:18;7.70;99.90
26505;DHT22;19493;48.042;7.584;2023-04-02T03:18:30;7.70;99.90
26505;DHT22;19493;48.042;7.584;2023-04-02T03:23:43;7.70;99.90
26505;DHT22;19493;48.042;7.584;2023-04-02T03:26:40;7.70;99.90
26505;DHT22;19493;48.042;7.584;2023-04-02T03:29:15;7.70;99.90
26505;DHT22;19493;48.042;7.584;2023-04-02T03:31:49;7.70;99.90
26505;DHT22;19493;48.042;7.584;2023-04-02T03:34:23;7.70;99.90
26505;DHT22;19493;48.042;7.584;2023-04-02T03:37:07;7.80;99.90
26505;DHT22;19493;48.042;7.584;2023-04-02T03:39:40;7.80;99.90
26505;DHT22;19493;48.042;7.584;2023-04-02T03:42:36;7.70;99.90
26505;DHT22;19493;48.042;7.584;2023-04-02T03:45:20;7.70;99.90
26505;DHT22;19493;48.042;7.584;2023-04-02T03:48:30;7.70;99.90
26505;DHT22;19493;48.042;7.584;2023-04-02T03:51:29;7.80;99.90
26505;DHT22;19493;48.042;7.584;2023-04-02T03:53:56;7.80;99.90
26505;DHT22;19493;48.042;7.584;2023-04-02T03:56:29;7.80;99.90
26505;DHT22;19493;48.042;7.584;2023-04-02T03:59:53;7.80;99.90
26505;DHT22;19493;48.042;7.584;2023-04-02T04:04:47;7.80;99.90
26505;DHT22;19493;48.042;7.584;2023-04-02T04:07:29;7.80;99.90
26505;DHT22;19493;48.042;7.584;2023-04-02T04:09:56;7.80;99.90
26505;DHT22;19493;48.042;7.584;2023-04-02T04:12:33;7.80;99.90
26505;DHT22;19493;48.042;7.584;2023-04-02T04:15:53;7.80;99.90
26505;DHT22;19493;48.042;7.584;2023-04-02T04:18:16;7.90;99.90
26505;DHT22;19493;48.042;7.584;2023-04-02T04:20:56;7.90;99.90
26505;DHT22;19493;48.042;7.584;2023-04-02T04:23:35;7.90;99.90
26505;DHT22;19493;48.042;7.584;2023-04-02T04:28:58;7.90;99.90
26505;DHT22;19493;48.042;7.584;2023-04-02T04:31:34;8.00;99.90
26505;DHT22;19493;48.042;7.584;2023-04-02T04:34:10;8.00;99.90
26505;DHT22;19493;48.042;7.584;2023-04-02T04:36:48;8.00;99.90
26505;DHT22;19493;48.042;7.584;2023-04-02T04:41:55;8.00;99.90
26505;DHT22;19493;48.042;7.584;2023-04-02T04:47:09;8.10;99.90
26505;DHT22;19493;48.042;7.584;2023-04-02T04:49:47;8.10;99.90
26505;DHT22;19493;48.042;7.584;2023-04-02T04:52:32;8.10;99.90
26505;DHT22;19493;48.042;7.584;2023-04-02T04:54:59;8.10;99.90
26505;DHT22;19493;48.042;7.584;2023-04-02T05:02:56;8.10;99.90
26505;DHT22;19493;48.042;7.584;2023-04-02T05:05:29;8.00;99.90
26505;DHT22;19493;48.042;7.584;2023-04-02T05:07:59;8.10;99.90
26505;DHT22;19493;48.042;7.584;2023-04-02T05:11:07;8.10;99.90
26505;DHT22;19493;48.042;7.584;2023-04-02T05:13:51;8.00;99.90
26505;DHT22;19493;48.042;7.584;2023-04-02T05:16:25;8.00;99.90
26505;DHT22;19493;48.042;7.584;2023-04-02T05:19:04;8.00;99.90
26505;DHT22;19493;48.042;7.584;2023-04-02T05:21:41;8.00;99.90
26505;DHT22;19493;48.042;7.584;2023-04-02T05:29:59;8.10;99.90
26505;DHT22;19493;48.042;7.584;2023-04-02T05:32:36;8.10;99.90
26505;DHT22;19493;48.042;7.584;2023-04-02T05:35:05;8.10;99.90
26505;DHT22;19493;48.042;7.584;2023-04-02T05:37:31;8.10;99.90
26505;DHT22;19493;48.042;7.584;2023-04-02T05:40:04;8.10;99.90
26505;DHT22;19493;48.042;7.584;2023-04-02T05:42:36;8.20;99.90
26505;DHT22;19493;48.042;7.584;2023-04-02T05:45:34;8.20;99.90
26505;DHT22;19493;48.042;7.584;2023-04-02T05:48:48;8.30;99.90
26505;DHT22;19493;48.042;7.584;2023-04-02T05:50:52;8.30;99.90
26505;DHT22;19493;48.042;7.584;2023-04-02T05:53:29;8.30;99.90
26505;DHT22;19493;48.042;7.584;2023-04-02T05:58:49;8.50;99.90
26505;DHT22;19493;48.042;7.584;2023-04-02T06:07:06;8.60;99.90
26505;DHT22;19493;48.042;7.584;2023-04-02T06:10:04;8.60;99.90
26505;DHT22;19493;48.042;7.584;2023-04-02T06:12:44;8.80;99.90
26505;DHT22;19493;48.042;7.584;2023-04-02T06:15:14;8.80;99.90
26505;DHT22;19493;48.042;7.584;2023-04-02T06:17:50;8.80;99.90
26505;DHT22;19493;48.042;7.584;2023-04-02T06:20:18;8.90;99.90
26505;DHT22;19493;48.042;7.584;2023-04-02T06:22:47;8.90;99.90
26505;DHT22;19493;48.042;7.584;2023-04-02T06:25:32;8.90;99.90
26505;DHT22;19493;48.042;7.584;2023-04-02T06:28:02;9.00;99.90
26505;DHT22;19493;48.042;7.584;2023-04-02T06:30:35;9.10;99.90
26505;DHT22;19493;48.042;7.584;2023-04-02T06:33:02;9.10;99.90
26505;DHT22;19493;48.042;7.584;2023-04-02T06:35:27;9.20;99.90
26505;DHT22;19493;48.042;7.584;2023-04-02T06:37:55;9.10;99.90
26505;DHT22;19493;48.042;7.584;2023-04-02T06:42:47;9.20;99.90
26505;DHT22;19493;48.042;7.584;2023-04-02T06:45:30;9.20;99.90
26505;DHT22;19493;48.042;7.584;2023-04-02T06:47:59;9.20;99.90
26505;DHT22;19493;48.042;7.584;2023-04-02T06:50:31;9.20;99.90
26505;DHT22;19493;48.042;7.584;2023-04-02T06:53:02;9.20;99.90
26505;DHT22;19493;48.042;7.584;2023-04-02T06:55:51;9.30;99.90
26505;DHT22;19493;48.042;7.584;2023-04-02T06:58:18;9.30;99.90
26505;DHT22;19493;48.042;7.584;2023-04-02T07:00:46;9.40;99.90
26505;DHT22;19493;48.042;7.584;2023-04-02T07:03:16;9.50;99.90
26505;DHT22;19493;48.042;7.584;2023-04-02T07:05:43;9.50;99.90
26505;DHT22;19493;48.042;7.584;2023-04-02T07:08:10;9.60;99.90
26505;DHT22;19493;48.042;7.584;2023-04-02T07:10:35;9.60;99.90
26505;DHT22;19493;48.042;7.584;2023-04-02T07:13:01;9.60;99.90
26505;DHT22;19493;48.042;7.584;2023-04-02T07:15:27;9.50;99.90
26505;DHT22;19493;48.042;7.584;2023-04-02T07:17:53;9.60;99.90
26505;DHT22;19493;48.042;7.584;2023-04-02T07:20:33;9.60;99.90
26505;DHT22;19493;48.042;7.584;2023-04-02T07:23:02;9.60;99.90
26505;DHT22;19493;48.042;7.584;2023-04-02T07:25:28;9.70;99.90
26505;DHT22;19493;48.042;7.584;2023-04-02T07:27:54;9.60;99.90
26505;DHT22;19493;48.042;7.584;2023-04-02T07:30:21;9.70;99.90
26505;DHT22;19493;48.042;7.584;2023-04-02T07:32:47;9.70;99.90
26505;DHT22;19493;48.042;7.584;2023-04-02T07:35:13;9.80;99.90
26505;DHT22;19493;48.042;7.584;2023-04-02T07:37:38;9.90;99.90
26505;DHT22;19493;48.042;7.584;2023-04-02T07:40:15;10.10;99.90
26505;DHT22;19493;48.042;7.584;2023-04-02T07:42:41;10.30;99.90
26505;DHT22;19493;48.042;7.584;2023-04-02T07:45:07;10.60;99.90
26505;DHT22;19493;48.042;7.584;2023-04-02T07:47:33;10.70;99.90
26505;DHT22;19493;48.042;7.584;2023-04-02T07:49:58;10.80;99.90
26505;DHT22;19493;48.042;7.584;2023-04-02T07:52:24;10.80;99.90
26505;DHT22;19493;48.042;7.584;2023-04-02T07:54:49;11.00;99.90
26505;DHT22;19493;48.042;7.584;2023-04-02T07:57:15;11.10;99.90
26505;DHT22;19493;48.042;7.584;2023-04-02T07:59:41;11.20;99.90
26505;DHT22;19493;48.042;7.584;2023-04-02T08:02:20;11.30;99.90
26505;DHT22;19493;48.042;7.584;2023-04-02T08:04:47;11.40;99.90
26505;DHT22;19493;48.042;7.584;2023-04-02T08:07:12;11.60;99.90
26505;DHT22;19493;48.042;7.584;2023-04-02T08:09:38;11.90;99.90
26505;DHT22;19493;48.042;7.584;2023-04-02T08:12:04;12.00;99.90
26505;DHT22;19493;48.042;7.584;2023-04-02T08:14:30;12.10;99.90
26505;DHT22;19493;48.042;7.584;2023-04-02T08:16:55;11.90;99.90
26505;DHT22;19493;48.042;7.584;2023-04-02T08:19:21;11.80;99.90
26505;DHT22;19493;48.042;7.584;2023-04-02T08:21:48;11.70;99.90
26505;DHT22;19493;48.042;7.584;2023-04-02T08:24:16;11.60;99.90
26505;DHT22;19493;48.042;7.584;2023-04-02T08:26:44;11.50;99.90
26505;DHT22;19493;48.042;7.584;2023-04-02T08:29:10;11.50;99.90
26505;DHT22;19493;48.042;7.584;2023-04-02T08:31:35;11.60;99.90
26505;DHT22;19493;48.042;7.584;2023-04-02T08:34:01;11.60;99.90
26505;DHT22;19493;48.042;7.584;2023-04-02T08:36:36;11.70;99.90
26505;DHT22;19493;48.042;7.584;2023-04-02T08:39:03;11.70;99.90
26505;DHT22;19493;48.042;7.584;2023-04-02T08:41:35;12.00;99.90
26505;DHT22;19493;48.042;7.584;2023-04-02T08:44:29;12.20;99.90
26505;DHT22;19493;48.042;7.584;2023-04-02T08:47:01;12.30;99.90
26505;DHT22;19493;48.042;7.584;2023-04-02T08:49:42;12.30;99.90
26505;DHT22;19493;48.042;7.584;2023-04-02T08:52:22;12.30;99.90
26505;DHT22;19493;48.042;7.584;2023-04-02T08:54:49;12.40;99.90
26505;DHT22;19493;48.042;7.584;2023-04-02T08:57:42;12.60;99.90
26505;DHT22;19493;48.042;7.584;2023-04-02T09:02:57;13.10;99.90
26505;DHT22;19493;48.042;7.584;2023-04-02T09:05:32;13.60;99.90
26505;DHT22;19493;48.042;7.584;2023-04-02T09:08:01;13.70;99.90
26505;DHT22;19493;48.042;7.584;2023-04-02T09:10:40;14.00;99.90
26505;DHT22;19493;48.042;7.584;2023-04-02T09:13:15;14.30;99.90
26505;DHT22;19493;48.042;7.584;2023-04-02T09:15:44;14.80;99.90
26505;DHT22;19493;48.042;7.584;2023-04-02T09:18:15;14.90;99.90
26505;DHT22;19493;48.042;7.584;2023-04-02T09:20:42;14.70;99.90
26505;DHT22;19493;48.042;7.584;2023-04-02T09:23:13;14.20;99.90
26505;DHT22;19493;48.042;7.584;2023-04-02T09:25:45;13.80;99.90
26505;DHT22;19493;48.042;7.584;2023-04-02T09:28:11;13.60;99.90
26505;DHT22;19493;48.042;7.584;2023-04-02T09:31:20;13.40;99.90
26505;DHT22;19493;48.042;7.584;2023-04-02T09:33:49;13.50;99.90
26505;DHT22;19493;48.042;7.584;2023-04-02T09:39:16;13.50;99.90
26505;DHT22;19493;48.042;7.584;2023-04-02T09:41:43;13.60;99.90
26505;DHT22;19493;48.042;7.584;2023-04-02T09:44:26;13.50;99.90
26505;DHT22;19493;48.042;7.584;2023-04-02T09:46:57;13.60;99.90
26505;DHT22;19493;48.042;7.584;2023-04-02T09:52:20;14.00;99.90
26505;DHT22;19493;48.042;7.584;2023-04-02T09:57:44;15.60;99.90
26505;DHT22;19493;48.042;7.584;2023-04-02T10:00:23;16.00;99.90
26505;DHT22;19493;48.042;7.584;2023-04-02T10:03:13;16.40;99.90
26505;DHT22;19493;48.042;7.584;2023-04-02T10:05:43;18.60;99.90
26505;DHT22;19493;48.042;7.584;2023-04-02T10:08:24;17.90;99.90
26505;DHT22;19493;48.042;7.584;2023-04-02T10:10:55;16.50;99.90
26505;DHT22;19493;48.042;7.584;2023-04-02T10:19:01;14.60;99.90
26505;DHT22;19493;48.042;7.584;2023-04-02T10:21:33;14.00;99.90
26505;DHT22;19493;48.042;7.584;2023-04-02T10:24:00;13.80;99.90
26505;DHT22;19493;48.042;7.584;2023-04-02T10:27:00;13.80;99.90
26505;DHT22;19493;48.042;7.584;2023-04-02T10:29:39;13.50;99.90
26505;DHT22;19493;48.042;7.584;2023-04-02T10:42:57;14.40;99.90
26505;DHT22;19493;48.042;7.584;2023-04-02T10:48:17;16.90;99.90
26505;DHT22;19493;48.042;7.584;2023-04-02T10:50:58;17.10;99.90
26505;DHT22;19493;48.042;7.584;2023-04-02T10:53:37;17.20;99.90
26505;DHT22;19493;48.042;7.584;2023-04-02T10:56:08;17.20;99.90
26505;DHT22;19493;48.042;7.584;2023-04-02T10:58:39;16.30;99.90
26505;DHT22;19493;48.042;7.584;2023-04-02T11:01:24;15.70;99.90
26505;DHT22;19493;48.042;7.584;2023-04-02T11:03:58;14.90;99.90
26505;DHT22;19493;48.042;7.584;2023-04-02T11:06:45;14.20;99.90
26505;DHT22;19493;48.042;7.584;2023-04-02T11:09:16;13.50;99.90
26505;DHT22;19493;48.042;7.584;2023-04-02T11:11:45;13.00;99.90
26505;DHT22;19493;48.042;7.584;2023-04-02T11:14:25;12.70;99.90
26505;DHT22;19493;48.042;7.584;2023-04-02T11:16:52;12.40;99.90
26505;DHT22;19493;48.042;7.584;2023-04-02T11:19:23;12.20;99.90
26505;DHT22;19493;48.042;7.584;2023-04-02T11:24:29;12.00;99.90
26505;DHT22;19493;48.042;7.584;2023-04-02T11:29:50;11.90;99.90
26505;DHT22;19493;48.042;7.584;2023-04-02T11:39:59;11.10;99.90
26505;DHT22;19493;48.042;7.584;2023-04-02T11:42:35;11.00;99.90
26505;DHT22;19493;48.042;7.584;2023-04-02T11:50:41;11.40;99.90
26505;DHT22;19493;48.042;7.584;2023-04-02T11:55:42;12.10;99.90
26505;DHT22;19493;48.042;7.584;2023-04-02T12:09:06;12.30;99.90
26505;DHT22;19493;48.042;7.584;2023-04-02T12:11:39;11.80;99.90
26505;DHT22;19493;48.042;7.584;2023-04-02T12:17:23;11.20;99.90
26505;DHT22;19493;48.042;7.584;2023-04-02T12:19:54;11.10;99.90
26505;DHT22;19493;48.042;7.584;2023-04-02T12:22:30;11.20;99.90
26505;DHT22;19493;48.042;7.584;2023-04-02T12:25:05;11.30;99.90
26505;DHT22;19493;48.042;7.584;2023-04-02T12:27:31;11.60;99.90
26505;DHT22;19493;48.042;7.584;2023-04-02T12:30:22;11.90;99.90
26505;DHT22;19493;48.042;7.584;2023-04-02T12:32:48;12.70;99.90
26505;DHT22;19493;48.042;7.584;2023-04-02T12:35:41;15.80;99.90
26505;DHT22;19493;48.042;7.584;2023-04-02T12:38:22;21.00;99.90
26505;DHT22;19493;48.042;7.584;2023-04-02T12:43:36;27.30;88.60
26505;DHT22;19493;48.042;7.584;2023-04-02T12:46:06;25.80;76.60
26505;DHT22;19493;48.042;7.584;2023-04-02T12:48:33;24.40;78.10
26505;DHT22;19493;48.042;7.584;2023-04-02T12:51:00;23.50;79.90
26505;DHT22;19493;48.042;7.584;2023-04-02T12:53:34;21.80;80.10
26505;DHT22;19493;48.042;7.584;2023-04-02T12:56:00;21.90;83.50
26505;DHT22;19493;48.042;7.584;2023-04-02T12:58:27;22.40;85.30
26505;DHT22;19493;48.042;7.584;2023-04-02T13:01:15;23.10;81.60
26505;DHT22;19493;48.042;7.584;2023-04-02T13:03:43;21.70;78.80
26505;DHT22;19493;48.042;7.584;2023-04-02T13:06:22;20.60;82.00
26505;DHT22;19493;48.042;7.584;2023-04-02T13:08:48;22.00;82.40
26505;DHT22;19493;48.042;7.584;2023-04-02T13:11:14;23.40;76.80
26505;DHT22;19493;48.042;7.584;2023-04-02T13:13:42;22.90;73.80
26505;DHT22;19493;48.042;7.584;2023-04-02T13:18:41;24.00;72.10
26505;DHT22;19493;48.042;7.584;2023-04-02T13:23:42;22.70;73.30
26505;DHT22;19493;48.042;7.584;2023-04-02T13:26:21;21.10;75.30
26505;DHT22;19493;48.042;7.584;2023-04-02T13:28:59;20.40;80.20
26505;DHT22;19493;48.042;7.584;2023-04-02T13:36:17;18.10;99.90
26505;DHT22;19493;48.042;7.584;2023-04-02T13:38:43;17.70;89.40
26505;DHT22;19493;48.042;7.584;2023-04-02T13:41:25;17.80;90.40
26505;DHT22;19493;48.042;7.584;2023-04-02T13:43:57;18.50;88.10
26505;DHT22;19493;48.042;7.584;2023-04-02T13:46:28;19.80;82.10
26505;DHT22;19493;48.042;7.584;2023-04-02T13:48:54;23.60;76.90
26505;DHT22;19493;48.042;7.584;2023-04-02T13:51:23;25.40;69.10
26505;DHT22;19493;48.042;7.584;2023-04-02T13:53:54;26.40;65.90
26505;DHT22;19493;48.042;7.584;2023-04-02T13:56:20;27.20;60.50
26505;DHT22;19493;48.042;7.584;2023-04-02T13:58:47;27.90;58.60
26505;DHT22;19493;48.042;7.584;2023-04-02T14:01:13;29.30;57.20
26505;DHT22;19493;48.042;7.584;2023-04-02T14:03:40;30.00;54.10
26505;DHT22;19493;48.042;7.584;2023-04-02T14:06:23;31.50;53.20
26505;DHT22;19493;48.042;7.584;2023-04-02T14:11:41;31.80;47.50
26505;DHT22;19493;48.042;7.584;2023-04-02T14:22:11;31.40;43.70
26505;DHT22;19493;48.042;7.584;2023-04-02T14:36:03;27.60;46.30
26505;DHT22;19493;48.042;7.584;2023-04-02T14:38:37;24.20;52.80
26505;DHT22;19493;48.042;7.584;2023-04-02T14:41:21;21.60;57.30
26505;DHT22;19493;48.042;7.584;2023-04-02T14:43:55;20.20;62.40
26505;DHT22;19493;48.042;7.584;2023-04-02T14:46:27;20.40;62.60
26505;DHT22;19493;48.042;7.584;2023-04-02T14:49:25;20.50;61.60
26505;DHT22;19493;48.042;7.584;2023-04-02T14:51:58;23.30;56.40
26505;DHT22;19493;48.042;7.584;2023-04-02T14:54:36;26.30;49.70
26505;DHT22;19493;48.042;7.584;2023-04-02T14:57:10;28.40;47.20
26505;DHT22;19493;48.042;7.584;2023-04-02T14:59:51;29.40;45.40
26505;DHT22;19493;48.042;7.584;2023-04-02T15:05:17;29.80;43.10
26505;DHT22;19493;48.042;7.584;2023-04-02T15:07:57;29.40;43.70
26505;DHT22;19493;48.042;7.584;2023-04-02T15:10:34;30.00;43.90
26505;DHT22;19493;48.042;7.584;2023-04-02T15:13:07;29.30;42.30
26505;DHT22;19493;48.042;7.584;2023-04-02T15:15:43;29.30;42.80
26505;DHT22;19493;48.042;7.584;2023-04-02T15:18:13;29.60;42.50
26505;DHT22;19493;48.042;7.584;2023-04-02T15:26:18;29.70;44.20
26505;DHT22;19493;48.042;7.584;2023-04-02T15:31:17;29.90;42.50
26505;DHT22;19493;48.042;7.584;2023-04-02T15:33:49;29.60;43.50
26505;DHT22;19493;48.042;7.584;2023-04-02T15:41:40;22.60;55.00
26505;DHT22;19493;48.042;7.584;2023-04-02T15:52:35;15.80;73.10
26505;DHT22;19493;48.042;7.584;2023-04-02T15:55:24;15.00;73.50
26505;DHT22;19493;48.042;7.584;2023-04-02T16:04:34;13.50;87.30
26505;DHT22;19493;48.042;7.584;2023-04-02T16:07:18;13.10;92.00
26505;DHT22;19493;48.042;7.584;2023-04-02T16:09:54;12.90;96.20
26505;DHT22;19493;48.042;7.584;2023-04-02T16:12:24;12.70;99.90
26505;DHT22;19493;48.042;7.584;2023-04-02T16:14:55;12.60;99.90
26505;DHT22;19493;48.042;7.584;2023-04-02T16:17:26;12.60;99.90
26505;DHT22;19493;48.042;7.584;2023-04-02T16:23:11;12.50;99.90
26505;DHT22;19493;48.042;7.584;2023-04-02T16:25:43;12.40;99.90
26505;DHT22;19493;48.042;7.584;2023-04-02T16:31:25;12.20;99.90
26505;DHT22;19493;48.042;7.584;2023-04-02T16:44:42;12.00;99.90
26505;DHT22;19493;48.042;7.584;2023-04-02T16:50:06;11.90;99.90
26505;DHT22;19493;48.042;7.584;2023-04-02T16:52:51;11.90;99.90
26505;DHT22;19493;48.042;7.584;2023-04-02T16:55:40;11.90;99.90
26505;DHT22;19493;48.042;7.584;2023-04-02T16:58:12;11.90;99.90
26505;DHT22;19493;48.042;7.584;2023-04-02T17:01:01;11.90;99.90
26505;DHT22;19493;48.042;7.584;2023-04-02T17:09:35;11.80;99.90
26505;DHT22;19493;48.042;7.584;2023-04-02T17:12:32;11.80;99.90
26505;DHT22;19493;48.042;7.584;2023-04-02T17:15:06;11.80;99.90
26505;DHT22;19493;48.042;7.584;2023-04-02T17:17:35;11.80;99.90
26505;DHT22;19493;48.042;7.584;2023-04-02T17:20:01;11.80;99.90
26505;DHT22;19493;48.042;7.584;2023-04-02T17:22:29;11.70;99.90
26505;DHT22;19493;48.042;7.584;2023-04-02T17:25:00;11.70;99.90
26505;DHT22;19493;48.042;7.584;2023-04-02T17:27:35;11.70;99.90
26505;DHT22;19493;48.042;7.584;2023-04-02T17:32:40;11.60;99.90
26505;DHT22;19493;48.042;7.584;2023-04-02T17:35:17;11.60;99.90
26505;DHT22;19493;48.042;7.584;2023-04-02T17:40:53;11.50;99.90
26505;DHT22;19493;48.042;7.584;2023-04-02T17:43:37;11.30;99.90
26505;DHT22;19493;48.042;7.584;2023-04-02T17:46:38;11.30;99.90
26505;DHT22;19493;48.042;7.584;2023-04-02T17:52:13;11.10;99.90
26505;DHT22;19493;48.042;7.584;2023-04-02T17:54:51;11.00;99.90
26505;DHT22;19493;48.042;7.584;2023-04-02T18:08:32;10.60;99.90
26505;DHT22;19493;48.042;7.584;2023-04-02T18:13:44;10.40;99.90
26505;DHT22;19493;48.042;7.584;2023-04-02T18:16:39;10.40;99.90
26505;DHT22;19493;48.042;7.584;2023-04-02T18:19:17;10.40;99.90
26505;DHT22;19493;48.042;7.584;2023-04-02T18:22:01;10.40;99.90
26505;DHT22;19493;48.042;7.584;2023-04-02T18:35:10;9.90;99.90
26505;DHT22;19493;48.042;7.584;2023-04-02T18:40:48;9.70;99.90
26505;DHT22;19493;48.042;7.584;2023-04-02T18:46:49;9.70;99.90
26505;DHT22;19493;48.042;7.584;2023-04-02T18:49:27;9.60;99.90
26505;DHT22;19493;48.042;7.584;2023-04-02T18:52:01;9.40;99.90
26505;DHT22;19493;48.042;7.584;2023-04-02T18:54:42;9.40;99.90
26505;DHT22;19493;48.042;7.584;2023-04-02T18:57:14;9.30;99.90
26505;DHT22;19493;48.042;7.584;2023-04-02T18:59:55;9.30;99.90
26505;DHT22;19493;48.042;7.584;2023-04-02T19:07:56;9.20;99.90
26505;DHT22;19493;48.042;7.584;2023-04-02T19:12:51;9.10;99.90
26505;DHT22;19493;48.042;7.584;2023-04-02T19:15:17;9.10;99.90
26505;DHT22;19493;48.042;7.584;2023-04-02T19:17:58;9.00;99.90
26505;DHT22;19493;48.042;7.584;2023-04-02T19:20:45;9.00;99.90
26505;DHT22;19493;48.042;7.584;2023-04-02T19:23:42;8.90;99.90
26505;DHT22;19493;48.042;7.584;2023-04-02T19:26:15;8.90;99.90
26505;DHT22;19493;48.042;7.584;2023-04-02T19:35:27;8.70;99.90
26505;DHT22;19493;48.042;7.584;2023-04-02T19:40:34;8.60;99.90
26505;DHT22;19493;48.042;7.584;2023-04-02T19:43:06;8.60;99.90
26505;DHT22;19493;48.042;7.584;2023-04-02T19:45:36;8.60;99.90
26505;DHT22;19493;48.042;7.584;2023-04-02T19:50:36;8.50;99.90
26505;DHT22;19493;48.042;7.584;2023-04-02T19:53:01;8.60;99.90
26505;DHT22;19493;48.042;7.584;2023-04-02T19:55:27;8.50;99.90
26505;DHT22;19493;48.042;7.584;2023-04-02T19:57:53;8.50;99.90
26505;DHT22;19493;48.042;7.584;2023-04-02T20:00:18;8.40;99.90
26505;DHT22;19493;48.042;7.584;2023-04-02T20:02:44;8.40;99.90
26505;DHT22;19493;48.042;7.584;2023-04-02T20:05:10;8.40;99.90
26505;DHT22;19493;48.042;7.584;2023-04-02T20:07:36;8.30;99.90
26505;DHT22;19493;48.042;7.584;2023-04-02T20:10:02;8.30;99.90
26505;DHT22;19493;48.042;7.584;2023-04-02T20:12:27;8.30;99.90
26505;DHT22;19493;48.042;7.584;2023-04-02T20:14:53;8.20;99.90
26505;DHT22;19493;48.042;7.584;2023-04-02T20:17:18;8.20;99.90
26505;DHT22;19493;48.042;7.584;2023-04-02T20:19:44;8.10;99.90
26505;DHT22;19493;48.042;7.584;2023-04-02T20:22:10;8.10;99.90
26505;DHT22;19493;48.042;7.584;2023-04-02T20:24:35;8.10;99.90
26505;DHT22;19493;48.042;7.584;2023-04-02T20:27:01;8.00;99.90
26505;DHT22;19493;48.042;7.584;2023-04-02T20:29:26;8.00;99.90
26505;DHT22;19493;48.042;7.584;2023-04-02T20:31:54;8.00;99.90
26505;DHT22;19493;48.042;7.584;2023-04-02T20:34:20;8.00;99.90
26505;DHT22;19493;48.042;7.584;2023-04-02T20:36:45;7.90;99.90
26505;DHT22;19493;48.042;7.584;2023-04-02T20:39:11;7.90;99.90
26505;DHT22;19493;48.042;7.584;2023-04-02T20:41:44;7.90;99.90
26505;DHT22;19493;48.042;7.584;2023-04-02T20:44:09;7.80;99.90
26505;DHT22;19493;48.042;7.584;2023-04-02T20:46:36;7.80;99.90
26505;DHT22;19493;48.042;7.584;2023-04-02T20:49:02;7.70;99.90
26505;DHT22;19493;48.042;7.584;2023-04-02T20:51:28;7.70;99.90
26505;DHT22;19493;48.042;7.584;2023-04-02T20:53:53;7.60;99.90
26505;DHT22;19493;48.042;7.584;2023-04-02T20:56:19;7.60;99.90
26505;DHT22;19493;48.042;7.584;2023-04-02T20:58:47;7.50;99.90
26505;DHT22;19493;48.042;7.584;2023-04-02T21:01:23;7.50;99.90